createdAt,value
2023-04-30T00:01:39.230Z,99182.41
2023-04-30T00:03:44.639Z,99184.88
2023-04-30T00:05:53.609Z,99182.38
2023-04-30T00:07:58.640Z,99188.22
2023-04-30T00:10:05.782Z,99187.41
2023-04-30T00:12:13.406Z,99196.53
2023-04-30T00:14:18.696Z,99200.69
2023-04-30T00:16:23.790Z,99192.38
2023-04-30T00:18:28.832Z,99194.03
2023-04-30T00:20:35.448Z,99206.53
2023-04-30T00:22:40.459Z,99204.03
2023-04-30T00:24:45.545Z,99197.34
2023-04-30T00:26:50.834Z,99204.00
2023-04-30T00:28:58.458Z,99199.03
2023-04-30T00:31:06.868Z,99201.47
2023-04-30T00:33:11.934Z,99200.66
2023-04-30T00:35:17.505Z,99199.00
2023-04-30T00:37:22.614Z,99199.00
2023-04-30T00:39:27.733Z,99199.00
2023-04-30T00:41:33.161Z,99203.97
2023-04-30T00:43:38.311Z,99209.72
2023-04-30T00:45:46.036Z,99208.91
2023-04-30T00:47:51.560Z,99200.53
2023-04-30T00:49:57.167Z,99202.16
2023-04-30T00:52:02.316Z,99205.56
2023-04-30T00:54:07.787Z,99206.34
2023-04-30T00:56:13.315Z,99201.31
2023-04-30T00:58:18.785Z,99207.19
2023-04-30T01:00:24.449Z,99201.38
2023-04-30T01:02:33.138Z,99208.84
2023-04-30T01:04:38.572Z,99208.84
2023-04-30T01:06:43.911Z,99208.00
2023-04-30T01:08:49.619Z,99208.81
2023-04-30T01:11:04.860Z,99215.50
2023-04-30T01:13:15.493Z,99216.25
2023-04-30T01:15:30.636Z,99217.03
2023-04-30T01:17:45.021Z,99222.03
2023-04-30T01:19:50.310Z,99226.19
2023-04-30T01:21:57.633Z,99218.72
2023-04-30T01:24:26.821Z,99225.41
2023-04-30T01:26:56.080Z,99224.56
2023-04-30T01:29:07.108Z,99227.06
2023-04-30T01:31:17.200Z,99232.03
2023-04-30T01:33:22.525Z,99221.25
2023-04-30T01:35:45.324Z,99232.91
2023-04-30T01:38:02.593Z,99228.72
2023-04-30T01:40:26.780Z,99227.06
2023-04-30T01:42:44.980Z,99232.06
2023-04-30T01:45:12.383Z,99233.72
2023-04-30T01:47:33.784Z,99237.03
2023-04-30T01:49:51.046Z,99237.03
2023-04-30T01:52:04.881Z,99240.34
2023-04-30T01:54:20.902Z,99242.00
2023-04-30T01:56:44.143Z,99244.47
2023-04-30T01:58:51.089Z,99243.63
2023-04-30T02:00:58.954Z,99253.59
2023-04-30T02:03:05.094Z,99256.09
2023-04-30T02:05:11.364Z,99251.91
2023-04-30T02:07:40.457Z,99260.22
2023-04-30T02:09:46.157Z,99250.19
2023-04-30T02:11:51.312Z,99254.25
2023-04-30T02:13:56.810Z,99260.03
2023-04-30T02:16:04.590Z,99258.31
2023-04-30T02:18:10.262Z,99263.31
2023-04-30T02:20:15.518Z,99262.44
2023-04-30T02:22:21.214Z,99263.22
2023-04-30T02:24:26.822Z,99262.41
2023-04-30T02:26:32.094Z,99263.22
2023-04-30T02:28:37.652Z,99266.56
2023-04-30T02:30:42.928Z,99268.25
2023-04-30T02:32:50.833Z,99266.50
2023-04-30T02:34:55.915Z,99264.84
2023-04-30T02:37:02.922Z,99263.09
2023-04-30T02:39:09.435Z,99258.13
2023-04-30T02:41:14.514Z,99261.53
2023-04-30T02:43:20.316Z,99261.47
2023-04-30T02:45:25.412Z,99258.88
2023-04-30T02:47:31.068Z,99265.47
2023-04-30T02:49:40.140Z,99266.22
2023-04-30T02:51:45.183Z,99270.44
2023-04-30T02:53:53.403Z,99272.13
2023-04-30T02:55:59.303Z,99272.16
2023-04-30T02:58:04.358Z,99268.88
2023-04-30T03:00:12.541Z,99269.75
2023-04-30T03:02:21.683Z,99263.06
2023-04-30T03:04:27.057Z,99270.38
2023-04-30T03:06:34.825Z,99262.03
2023-04-30T03:08:39.998Z,99270.34
2023-04-30T03:10:45.017Z,99278.50
2023-04-30T03:12:50.270Z,99275.13
2023-04-30T03:14:56.468Z,99276.81
2023-04-30T03:17:01.501Z,99279.38
2023-04-30T03:19:07.011Z,99282.66
2023-04-30T03:21:12.461Z,99272.00
2023-04-30T03:23:20.245Z,99266.22
2023-04-30T03:25:25.668Z,99279.47
2023-04-30T03:27:30.703Z,99276.16
2023-04-30T03:29:35.890Z,99272.72
2023-04-30T03:31:41.109Z,99273.56
2023-04-30T03:33:46.476Z,99276.00
2023-04-30T03:35:52.057Z,99277.66
2023-04-30T03:37:57.162Z,99272.66
2023-04-30T03:40:06.923Z,99280.16
2023-04-30T03:42:11.949Z,99281.97
2023-04-30T03:44:18.002Z,99266.28
2023-04-30T03:46:23.212Z,99273.75
2023-04-30T03:48:28.312Z,99271.34
2023-04-30T03:50:33.544Z,99270.50
2023-04-30T03:52:39.019Z,99271.34
2023-04-30T03:54:44.998Z,99274.69
2023-04-30T03:56:52.800Z,99268.19
2023-04-30T03:58:58.325Z,99278.16
2023-04-30T04:01:03.520Z,99268.22
2023-04-30T04:03:08.669Z,99273.19
2023-04-30T04:05:13.844Z,99279.00
2023-04-30T04:07:19.494Z,99278.28
2023-04-30T04:09:24.612Z,99273.38
2023-04-30T04:11:29.647Z,99280.09
2023-04-30T04:13:38.328Z,99276.81
2023-04-30T04:15:43.453Z,99279.31
2023-04-30T04:17:49.237Z,99271.81
2023-04-30T04:19:54.985Z,99274.31
2023-04-30T04:22:00.381Z,99271.00
2023-04-30T04:24:08.748Z,99282.75
2023-04-30T04:26:15.313Z,99280.19
2023-04-30T04:28:20.391Z,99287.72
2023-04-30T04:30:28.784Z,99284.41
2023-04-30T04:32:47.034Z,99289.41
2023-04-30T04:34:54.662Z,99294.38
2023-04-30T04:36:59.711Z,99296.06
2023-04-30T04:39:05.039Z,99295.25
2023-04-30T04:41:10.421Z,99299.41
2023-04-30T04:43:15.868Z,99305.28
2023-04-30T04:45:22.198Z,99306.94
2023-04-30T04:47:31.529Z,99305.31
2023-04-30T04:49:36.991Z,99302.06
2023-04-30T04:51:42.676Z,99302.06
2023-04-30T04:53:47.777Z,99305.38
2023-04-30T04:55:53.358Z,99298.75
2023-04-30T04:57:58.401Z,99302.09
2023-04-30T05:00:04.238Z,99299.59
2023-04-30T05:02:09.336Z,99307.09
2023-04-30T05:04:17.411Z,99307.13
2023-04-30T05:06:24.064Z,99310.44
2023-04-30T05:08:29.130Z,99308.78
2023-04-30T05:10:35.034Z,99308.03
2023-04-30T05:12:40.249Z,99313.06
2023-04-30T05:14:45.333Z,99310.56
2023-04-30T05:16:50.813Z,99309.69
2023-04-30T05:18:56.317Z,99305.50
2023-04-30T05:21:05.090Z,99304.66
2023-04-30T05:23:10.090Z,99307.19
2023-04-30T05:25:15.489Z,99302.19
2023-04-30T05:27:21.256Z,99310.56
2023-04-30T05:29:26.537Z,99319.66
2023-04-30T05:31:32.706Z,99310.50
2023-04-30T05:33:37.751Z,99313.84
2023-04-30T05:35:42.846Z,99316.38
2023-04-30T05:37:50.529Z,99321.38
2023-04-30T05:39:56.412Z,99317.25
2023-04-30T05:42:02.953Z,99315.59
2023-04-30T05:44:08.610Z,99317.25
2023-04-30T05:46:14.168Z,99316.41
2023-04-30T05:48:19.303Z,99322.22
2023-04-30T05:50:24.385Z,99323.88
2023-04-30T05:52:29.639Z,99318.09
2023-04-30T05:54:37.372Z,99318.09
2023-04-30T05:56:43.148Z,99313.94
2023-04-30T05:58:48.198Z,99317.31
2023-04-30T06:00:53.851Z,99310.66
2023-04-30T06:02:59.045Z,99313.97
2023-04-30T06:05:04.282Z,99313.16
2023-04-30T06:07:09.676Z,99308.19
2023-04-30T06:09:14.906Z,99309.03
2023-04-30T06:11:23.099Z,99309.03
2023-04-30T06:13:28.176Z,99307.34
2023-04-30T06:15:33.314Z,99309.84
2023-04-30T06:17:38.360Z,99301.47
2023-04-30T06:19:43.433Z,99308.97
2023-04-30T06:21:48.913Z,99308.97
2023-04-30T06:23:53.938Z,99315.59
2023-04-30T06:25:59.037Z,99313.13
2023-04-30T06:28:08.494Z,99318.09
2023-04-30T06:30:14.553Z,99313.88
2023-04-30T06:32:20.077Z,99312.16
2023-04-30T06:34:25.146Z,99323.78
2023-04-30T06:36:30.169Z,99317.09
2023-04-30T06:38:35.199Z,99317.09
2023-04-30T06:40:40.281Z,99316.97
2023-04-30T06:42:47.635Z,99316.88
2023-04-30T06:44:55.913Z,99308.47
2023-04-30T06:47:01.147Z,99308.34
2023-04-30T06:49:06.166Z,99304.94
2023-04-30T06:51:11.922Z,99313.19
2023-04-30T06:53:17.698Z,99307.09
2023-04-30T06:55:23.459Z,99310.31
2023-04-30T06:57:28.807Z,99308.66
2023-04-30T06:59:34.012Z,99307.81
2023-04-30T07:01:41.673Z,99305.16
2023-04-30T07:03:47.046Z,99304.06
2023-04-30T07:05:54.174Z,99310.63
2023-04-30T07:07:59.573Z,99317.03
2023-04-30T07:10:04.613Z,99311.84
2023-04-30T07:12:11.509Z,99315.00
2023-04-30T07:14:16.530Z,99314.72
2023-04-30T07:16:21.925Z,99307.66
2023-04-30T07:18:29.577Z,99314.31
2023-04-30T07:20:34.674Z,99308.97
2023-04-30T07:22:40.142Z,99320.53
2023-04-30T07:24:45.274Z,99315.19
2023-04-30T07:26:50.429Z,99312.53
2023-04-30T07:28:55.715Z,99320.06
2023-04-30T07:31:00.833Z,99313.19
2023-04-30T07:33:05.937Z,99306.28
2023-04-30T07:35:14.759Z,99312.63
2023-04-30T07:37:19.808Z,99313.25
2023-04-30T07:39:24.830Z,99310.44
2023-04-30T07:41:29.991Z,99312.25
2023-04-30T07:43:35.026Z,99312.69
2023-04-30T07:45:40.296Z,99304.91
2023-04-30T07:47:45.624Z,99308.16
2023-04-30T07:49:52.509Z,99301.13
2023-04-30T07:52:01.068Z,99307.88
2023-04-30T07:54:07.208Z,99298.41
2023-04-30T07:56:12.237Z,99299.66
2023-04-30T07:58:18.150Z,99295.38
2023-04-30T08:00:23.389Z,99295.38
2023-04-30T08:02:28.561Z,99298.63
2023-04-30T08:04:34.424Z,99298.41
2023-04-30T08:06:39.714Z,99297.78
2023-04-30T08:08:48.673Z,99299.63
2023-04-30T08:10:53.786Z,99298.59
2023-04-30T08:12:58.816Z,99301.81
2023-04-30T08:15:05.414Z,99306.22
2023-04-30T08:17:10.620Z,99300.78
2023-04-30T08:19:15.906Z,99295.31
2023-04-30T08:21:21.022Z,99294.63
2023-04-30T08:23:26.456Z,99292.19
2023-04-30T08:25:34.380Z,99301.06
2023-04-30T08:27:39.740Z,99297.09
2023-04-30T08:29:45.284Z,99295.78
2023-04-30T08:31:50.396Z,99297.31
2023-04-30T08:33:55.686Z,99294.88
2023-04-30T08:36:00.770Z,99300.44
2023-04-30T08:38:06.164Z,99306.91
2023-04-30T08:40:14.155Z,99299.03
2023-04-30T08:42:24.391Z,99302.50
2023-04-30T08:44:31.002Z,99300.38
2023-04-30T08:46:37.921Z,99298.03
2023-04-30T08:48:44.884Z,99287.91
2023-04-30T08:50:49.940Z,99297.72
2023-04-30T08:52:55.022Z,99292.31
2023-04-30T08:55:01.631Z,99284.28
2023-04-30T08:57:08.042Z,99285.16
2023-04-30T08:59:16.490Z,99283.25
2023-04-30T09:01:22.784Z,99287.97
2023-04-30T09:03:28.641Z,99279.75
2023-04-30T09:05:34.020Z,99277.84
2023-04-30T09:07:46.120Z,99282.47
2023-04-30T09:09:58.694Z,99282.94
2023-04-30T09:12:19.315Z,99272.63
2023-04-30T09:14:30.185Z,99275.81
2023-04-30T09:16:50.585Z,99268.75
2023-04-30T09:18:56.856Z,99264.66
2023-04-30T09:21:03.666Z,99267.44
2023-04-30T09:23:11.152Z,99270.63
2023-04-30T09:25:16.490Z,99268.97
2023-04-30T09:27:25.135Z,99265.78
2023-04-30T09:29:40.919Z,99262.59
2023-04-30T09:31:50.240Z,99258.44
2023-04-30T09:33:56.371Z,99264.81
2023-04-30T09:36:11.325Z,99260.63
2023-04-30T09:38:31.206Z,99262.09
2023-04-30T09:40:40.759Z,99253.72
2023-04-30T09:43:01.888Z,99257.78
2023-04-30T09:45:15.267Z,99256.19
2023-04-30T09:47:21.946Z,99254.53
2023-04-30T09:49:27.838Z,99256.31
2023-04-30T09:51:33.564Z,99256.66
2023-04-30T09:53:41.354Z,99252.59
2023-04-30T09:55:47.931Z,99254.38
2023-04-30T09:57:53.346Z,99251.63
2023-04-30T09:59:59.398Z,99250.31
2023-04-30T10:02:08.896Z,99254.22
2023-04-30T10:04:14.204Z,99253.13
2023-04-30T10:06:20.856Z,99249.59
2023-04-30T10:08:31.269Z,99248.34
2023-04-30T10:10:36.580Z,99242.25
2023-04-30T10:12:46.963Z,99244.63
2023-04-30T10:14:58.356Z,99238.19
2023-04-30T10:17:16.887Z,99234.25
2023-04-30T10:19:27.289Z,99235.66
2023-04-30T10:21:34.346Z,99228.03
2023-04-30T10:23:40.105Z,99227.03
2023-04-30T10:25:46.122Z,99227.03
2023-04-30T10:27:51.189Z,99231.50
2023-04-30T10:29:58.033Z,99229.63
2023-04-30T10:32:07.464Z,99220.53
2023-04-30T10:34:24.686Z,99222.44
2023-04-30T10:36:41.161Z,99223.19
2023-04-30T10:38:48.532Z,99218.56
2023-04-30T10:40:53.857Z,99226.03
2023-04-30T10:42:58.923Z,99223.38
2023-04-30T10:45:06.373Z,99215.59
2023-04-30T10:47:14.702Z,99216.78
2023-04-30T10:49:28.688Z,99212.41
2023-04-30T10:51:51.834Z,99205.63
2023-04-30T10:53:58.447Z,99210.84
2023-04-30T10:56:09.469Z,99209.28
2023-04-30T10:58:34.271Z,99201.53
2023-04-30T11:00:39.827Z,99197.75
2023-04-30T11:02:50.161Z,99190.66
2023-04-30T11:05:19.035Z,99191.63
2023-04-30T11:07:29.234Z,99185.66
2023-04-30T11:09:44.349Z,99179.66
2023-04-30T11:11:51.075Z,99181.94
2023-04-30T11:14:03.631Z,99179.31
2023-04-30T11:16:09.205Z,99177.09
2023-04-30T11:18:17.238Z,99174.31
2023-04-30T11:20:25.638Z,99175.22
2023-04-30T11:22:36.444Z,99169.00
2023-04-30T11:25:06.622Z,99159.50
2023-04-30T11:27:16.129Z,99157.19
2023-04-30T11:29:22.416Z,99156.66
2023-04-30T11:31:37.105Z,99155.25
2023-04-30T11:33:44.752Z,99152.22
2023-04-30T11:35:52.229Z,99157.94
2023-04-30T11:37:59.838Z,99161.94
2023-04-30T11:40:07.959Z,99163.47
2023-04-30T11:42:13.290Z,99154.19
2023-04-30T11:44:29.320Z,99153.84
2023-04-30T11:46:34.461Z,99149.81
2023-04-30T11:48:42.392Z,99158.41
2023-04-30T11:50:50.554Z,99147.09
2023-04-30T11:52:57.523Z,99147.44
2023-04-30T11:55:03.109Z,99139.69
2023-04-30T11:57:08.863Z,99135.16
2023-04-30T11:59:14.361Z,99140.13
2023-04-30T12:01:21.275Z,99125.03
2023-04-30T12:03:27.428Z,99131.75
2023-04-30T12:05:32.585Z,99129.78
2023-04-30T12:07:40.483Z,99121.84
2023-04-30T12:09:58.533Z,99127.47
2023-04-30T12:12:03.773Z,99123.03
2023-04-30T12:14:11.576Z,99122.03
2023-04-30T12:16:17.111Z,99114.88
2023-04-30T12:18:22.138Z,99108.88
2023-04-30T12:20:29.821Z,99109.38
2023-04-30T12:22:35.801Z,99111.28
2023-04-30T12:24:43.422Z,99112.16
2023-04-30T12:26:49.306Z,99103.66
2023-04-30T12:28:55.226Z,99101.69
2023-04-30T12:31:00.290Z,99102.09
2023-04-30T12:33:06.913Z,99107.09
2023-04-30T12:35:16.769Z,99107.81
2023-04-30T12:37:21.799Z,99102.59
2023-04-30T12:39:27.575Z,99101.47
2023-04-30T12:41:42.638Z,99105.88
2023-04-30T12:43:47.616Z,99096.72
2023-04-30T12:45:54.696Z,99098.44
2023-04-30T12:47:59.940Z,99097.44
2023-04-30T12:50:06.109Z,99086.06
2023-04-30T12:52:15.557Z,99093.22
2023-04-30T12:54:29.164Z,99088.19
2023-04-30T12:56:36.848Z,99086.19
2023-04-30T12:58:42.653Z,99072.38
2023-04-30T13:00:52.895Z,99083.06
2023-04-30T13:02:58.044Z,99076.28
2023-04-30T13:05:04.322Z,99071.19
2023-04-30T13:07:09.888Z,99073.59
2023-04-30T13:09:15.675Z,99076.50
2023-04-30T13:11:20.705Z,99068.59
2023-04-30T13:13:29.486Z,99068.94
2023-04-30T13:15:35.229Z,99072.13
2023-04-30T13:17:40.865Z,99063.28
2023-04-30T13:19:46.429Z,99069.84
2023-04-30T13:21:51.457Z,99064.41
2023-04-30T13:23:58.485Z,99054.13
2023-04-30T13:26:05.158Z,99059.53
2023-04-30T13:28:10.273Z,99042.59
2023-04-30T13:30:19.059Z,99048.28
2023-04-30T13:32:24.265Z,99043.06
2023-04-30T13:34:29.996Z,99040.28
2023-04-30T13:36:35.410Z,99040.00
2023-04-30T13:38:41.747Z,99033.59
2023-04-30T13:40:47.016Z,99050.22
2023-04-30T13:42:52.259Z,99033.53
2023-04-30T13:44:57.525Z,99030.19
2023-04-30T13:47:05.208Z,99025.34
2023-04-30T13:49:10.982Z,99013.75
2023-04-30T13:51:16.097Z,99029.00
2023-04-30T13:53:21.556Z,99021.38
2023-04-30T13:55:27.212Z,99019.34
2023-04-30T13:57:33.988Z,99006.09
2023-04-30T13:59:39.717Z,99013.84
2023-04-30T14:01:44.776Z,99007.91
2023-04-30T14:03:52.731Z,99007.00
2023-04-30T14:05:58.738Z,99001.81
2023-04-30T14:08:03.753Z,99003.16
2023-04-30T14:10:11.474Z,99006.19
2023-04-30T14:12:16.517Z,98999.44
2023-04-30T14:14:21.761Z,99003.22
2023-04-30T14:16:27.706Z,99010.97
2023-04-30T14:18:32.718Z,99007.63
2023-04-30T14:20:40.971Z,99003.50
2023-04-30T14:22:46.109Z,98998.19
2023-04-30T14:24:51.562Z,99004.97
2023-04-30T14:26:56.633Z,99007.78
2023-04-30T14:29:01.637Z,98996.63
2023-04-30T14:31:07.236Z,98997.63
2023-04-30T14:33:13.171Z,98990.72
2023-04-30T14:35:18.270Z,98985.91
2023-04-30T14:37:25.917Z,98991.34
2023-04-30T14:39:31.042Z,98988.97
2023-04-30T14:41:39.049Z,98986.47
2023-04-30T14:43:44.103Z,98991.44
2023-04-30T14:45:49.644Z,98987.94
2023-04-30T14:47:54.763Z,98996.25
2023-04-30T14:50:02.349Z,99000.69
2023-04-30T14:52:07.988Z,98993.91
2023-04-30T14:54:15.652Z,98992.13
2023-04-30T14:56:21.222Z,98991.59
2023-04-30T14:58:26.262Z,98977.91
2023-04-30T15:00:31.271Z,98982.47
2023-04-30T15:02:36.416Z,98973.25
2023-04-30T15:04:45.557Z,98968.53
2023-04-30T15:06:50.982Z,98966.97
2023-04-30T15:08:56.528Z,98969.13
2023-04-30T15:11:07.331Z,98966.69
2023-04-30T15:13:14.350Z,98983.63
2023-04-30T15:15:21.401Z,98967.88
2023-04-30T15:17:27.087Z,98970.81
2023-04-30T15:19:33.313Z,98977.25
2023-04-30T15:21:39.260Z,98972.19
2023-04-30T15:23:44.363Z,98970.66
2023-04-30T15:25:49.618Z,98977.69
2023-04-30T15:27:58.469Z,98973.88
2023-04-30T15:30:03.904Z,98963.94
2023-04-30T15:32:09.453Z,98958.78
2023-04-30T15:34:14.511Z,98964.38
2023-04-30T15:36:20.523Z,98966.94
2023-04-30T15:38:25.554Z,98968.47
2023-04-30T15:40:31.163Z,98971.41
2023-04-30T15:42:37.554Z,98976.72
2023-04-30T15:44:45.176Z,98976.53
2023-04-30T15:46:52.064Z,98976.69
2023-04-30T15:48:57.225Z,98967.44
2023-04-30T15:51:02.480Z,98963.00
2023-04-30T15:53:07.847Z,98966.00
2023-04-30T15:55:13.432Z,98957.44
2023-04-30T15:57:18.561Z,98950.91
2023-04-30T15:59:23.829Z,98941.47
2023-04-30T16:01:31.595Z,98944.50
2023-04-30T16:03:37.941Z,98938.13
2023-04-30T16:05:43.960Z,98927.22
2023-04-30T16:07:49.117Z,98922.59
2023-04-30T16:09:54.331Z,98920.78
2023-04-30T16:12:00.321Z,98930.25
2023-04-30T16:14:05.557Z,98934.09
2023-04-30T16:16:11.386Z,98945.78
2023-04-30T16:18:19.008Z,98936.00
2023-04-30T16:20:24.042Z,98939.97
2023-04-30T16:22:30.369Z,98929.41
2023-04-30T16:24:35.414Z,98929.31
2023-04-30T16:26:40.876Z,98922.28
2023-04-30T16:28:45.921Z,98916.03
2023-04-30T16:30:50.939Z,98906.81
2023-04-30T16:32:56.031Z,98913.34
2023-04-30T16:35:03.713Z,98905.16
2023-04-30T16:37:08.919Z,98912.56
2023-04-30T16:39:16.848Z,98913.94
2023-04-30T16:41:22.202Z,98910.88
2023-04-30T16:43:27.240Z,98907.28
2023-04-30T16:45:32.633Z,98908.47
2023-04-30T16:47:38.031Z,98899.47
2023-04-30T16:49:43.082Z,98912.13
2023-04-30T16:51:51.071Z,98910.22
2023-04-30T16:53:56.959Z,98911.13
2023-04-30T16:56:01.980Z,98915.47
2023-04-30T16:58:07.651Z,98908.25
2023-04-30T17:00:14.911Z,98912.63
2023-04-30T17:02:20.048Z,98906.34
2023-04-30T17:04:25.572Z,98910.03
2023-04-30T17:06:30.627Z,98921.41
2023-04-30T17:08:40.518Z,98916.81
2023-04-30T17:10:45.863Z,98911.09
2023-04-30T17:12:51.283Z,98904.56
2023-04-30T17:14:56.317Z,98910.75
2023-04-30T17:17:01.861Z,98917.06
2023-04-30T17:19:08.092Z,98911.41
2023-04-30T17:21:13.265Z,98917.28
2023-04-30T17:23:18.617Z,98915.91
2023-04-30T17:25:26.385Z,98918.47
2023-04-30T17:27:31.534Z,98919.28
2023-04-30T17:29:36.826Z,98932.00
2023-04-30T17:31:41.912Z,98927.22
2023-04-30T17:33:47.050Z,98933.03
2023-04-30T17:35:52.804Z,98934.59
2023-04-30T17:37:58.077Z,98931.69
2023-04-30T17:40:03.403Z,98938.44
2023-04-30T17:42:11.043Z,98937.03
2023-04-30T17:44:16.318Z,98938.19
2023-04-30T17:46:22.569Z,98944.03
2023-04-30T17:48:28.116Z,98933.03
2023-04-30T17:50:33.862Z,98938.50
2023-04-30T17:52:39.061Z,98957.28
2023-04-30T17:54:44.337Z,98950.00
2023-04-30T17:56:49.413Z,98946.13
2023-04-30T17:58:57.521Z,98950.31
2023-04-30T18:01:03.848Z,98943.84
2023-04-30T18:03:08.952Z,98941.16
2023-04-30T18:05:14.938Z,98936.50
2023-04-30T18:07:20.016Z,98947.41
2023-04-30T18:09:26.059Z,98942.47
2023-04-30T18:11:31.445Z,98943.19
2023-04-30T18:13:37.226Z,98948.41
2023-04-30T18:15:44.825Z,98947.28
2023-04-30T18:17:50.160Z,98951.38
2023-04-30T18:19:56.004Z,98952.16
2023-04-30T18:22:01.341Z,98949.88
2023-04-30T18:24:07.314Z,98948.06
2023-04-30T18:26:12.375Z,98945.31
2023-04-30T18:28:17.935Z,98950.31
2023-04-30T18:30:23.102Z,98942.41
2023-04-30T18:32:31.259Z,98945.25
2023-04-30T18:34:36.528Z,98943.84
2023-04-30T18:36:43.110Z,98938.44
2023-04-30T18:38:48.364Z,98943.84
2023-04-30T18:40:56.749Z,98936.66
2023-04-30T18:43:01.771Z,98936.88
2023-04-30T18:45:09.170Z,98940.91
2023-04-30T18:47:14.291Z,98937.69
2023-04-30T18:49:21.886Z,98943.09
2023-04-30T18:51:27.025Z,98944.97
2023-04-30T18:53:32.307Z,98939.25
2023-04-30T18:55:37.341Z,98939.47
2023-04-30T18:57:43.418Z,98945.97
2023-04-30T18:59:49.605Z,98944.81
2023-04-30T19:01:54.906Z,98939.28
2023-04-30T19:03:59.957Z,98940.25
2023-04-30T19:06:07.721Z,98945.63
2023-04-30T19:08:12.823Z,98945.94
2023-04-30T19:10:18.082Z,98946.25
2023-04-30T19:12:23.133Z,98951.31
2023-04-30T19:14:28.238Z,98949.75
2023-04-30T19:16:33.642Z,98948.41
2023-04-30T19:18:39.694Z,98950.34
2023-04-30T19:20:46.322Z,98951.16
2023-04-30T19:22:53.919Z,98957.03
2023-04-30T19:24:59.410Z,98959.25
2023-04-30T19:27:04.710Z,98948.81
2023-04-30T19:29:09.721Z,98952.94
2023-04-30T19:31:15.306Z,98952.84
2023-04-30T19:33:21.351Z,98958.88
2023-04-30T19:35:26.666Z,98952.69
2023-04-30T19:37:31.770Z,98950.34
2023-04-30T19:39:40.424Z,98950.47
2023-04-30T19:41:45.470Z,98952.28
2023-04-30T19:43:52.477Z,98956.03
2023-04-30T19:45:59.463Z,98951.41
2023-04-30T19:48:04.527Z,98948.34
2023-04-30T19:50:12.123Z,98954.50
2023-04-30T19:52:17.301Z,98954.94
2023-04-30T19:54:22.311Z,98958.72
2023-04-30T19:56:31.227Z,98961.88
2023-04-30T19:58:36.245Z,98963.19
2023-04-30T20:00:45.560Z,98963.00
2023-04-30T20:02:52.020Z,98961.88
2023-04-30T20:04:57.799Z,98964.69
2023-04-30T20:07:03.111Z,98965.94
2023-04-30T20:09:08.140Z,98966.06
2023-04-30T20:11:13.435Z,98962.81
2023-04-30T20:13:22.724Z,98964.59
2023-04-30T20:15:28.121Z,98956.28
2023-04-30T20:17:34.064Z,98964.00
2023-04-30T20:19:39.149Z,98968.38
2023-04-30T20:21:44.408Z,98970.09
2023-04-30T20:23:49.464Z,98963.53
2023-04-30T20:25:55.438Z,98967.91
2023-04-30T20:28:01.016Z,98965.47
2023-04-30T20:30:10.647Z,98963.75
2023-04-30T20:32:15.691Z,98968.03
2023-04-30T20:34:20.702Z,98967.47
2023-04-30T20:36:26.341Z,98967.75
2023-04-30T20:38:31.736Z,98967.94
2023-04-30T20:40:40.189Z,98968.03
2023-04-30T20:42:45.222Z,98973.13
2023-04-30T20:44:50.591Z,98970.75
2023-04-30T20:46:58.555Z,98976.69
2023-04-30T20:49:05.266Z,98971.66
2023-04-30T20:51:10.745Z,98965.94
2023-04-30T20:53:15.812Z,98961.88
2023-04-30T20:55:21.246Z,98967.16
2023-04-30T20:57:26.504Z,98963.28
2023-04-30T20:59:31.815Z,98962.63
2023-04-30T21:01:37.081Z,98966.09
2023-04-30T21:03:44.760Z,98969.56
2023-04-30T21:05:49.828Z,98969.66
2023-04-30T21:07:55.188Z,98968.81
2023-04-30T21:10:01.147Z,98969.66
2023-04-30T21:12:07.867Z,98973.03
2023-04-30T21:14:12.926Z,98972.25
2023-04-30T21:16:18.005Z,98972.31
2023-04-30T21:18:23.352Z,98970.53
2023-04-30T21:20:31.718Z,98967.97
2023-04-30T21:22:37.116Z,98973.75
2023-04-30T21:24:42.183Z,98971.38
2023-04-30T21:26:47.550Z,98975.75
2023-04-30T21:28:53.435Z,98974.22
2023-04-30T21:30:58.839Z,98970.09
2023-04-30T21:33:04.902Z,98972.44
2023-04-30T21:35:10.508Z,98969.91
2023-04-30T21:37:18.583Z,98961.59
2023-04-30T21:39:23.826Z,98971.56
2023-04-30T21:41:30.329Z,98966.56
2023-04-30T21:43:35.447Z,98965.13
2023-04-30T21:45:42.036Z,98971.88
2023-04-30T21:47:50.648Z,98970.38
2023-04-30T21:49:56.221Z,98964.41
2023-04-30T21:52:01.838Z,98967.78
2023-04-30T21:54:09.558Z,98955.28
2023-04-30T21:56:16.418Z,98956.97
2023-04-30T21:58:21.646Z,98962.00
2023-04-30T22:00:28.159Z,98959.41
2023-04-30T22:02:33.233Z,98954.50
2023-04-30T22:04:38.478Z,98948.66
2023-04-30T22:06:43.583Z,98955.28
2023-04-30T22:08:48.929Z,98951.91
2023-04-30T22:10:59.828Z,98947.69
2023-04-30T22:13:05.460Z,98953.56
2023-04-30T22:15:12.326Z,98949.44
2023-04-30T22:17:17.580Z,98948.66
2023-04-30T22:19:23.080Z,98947.09
2023-04-30T22:21:28.085Z,98952.09
2023-04-30T22:23:34.053Z,98953.72
2023-04-30T22:25:39.140Z,98947.88
2023-04-30T22:27:47.881Z,98947.06
2023-04-30T22:29:53.405Z,98954.53
2023-04-30T22:31:59.416Z,98950.38
2023-04-30T22:34:07.200Z,98952.06
2023-04-30T22:36:12.209Z,98945.47
2023-04-30T22:38:17.787Z,98944.63
2023-04-30T22:40:22.815Z,98943.97
2023-04-30T22:42:28.484Z,98945.56
2023-04-30T22:44:37.950Z,98941.47
2023-04-30T22:46:43.378Z,98938.25
2023-04-30T22:48:48.670Z,98940.66
2023-04-30T22:50:54.560Z,98939.81
2023-04-30T22:52:59.921Z,98941.53
2023-04-30T22:55:05.645Z,98947.41
2023-04-30T22:57:10.691Z,98945.75
2023-04-30T22:59:17.105Z,98947.41
2023-04-30T23:01:24.810Z,98948.25
2023-04-30T23:03:30.414Z,98949.88
2023-04-30T23:05:35.599Z,98949.03
2023-04-30T23:07:40.891Z,98940.75
2023-04-30T23:09:45.980Z,98949.09
2023-04-30T23:11:51.133Z,98949.94
2023-04-30T23:13:56.784Z,98945.75
2023-04-30T23:16:05.581Z,98944.09
2023-04-30T23:18:13.337Z,98950.00
2023-04-30T23:20:18.932Z,98948.34
2023-04-30T23:22:23.915Z,98949.16
2023-04-30T23:24:28.953Z,98947.50
2023-04-30T23:26:34.263Z,98955.88
2023-04-30T23:28:39.941Z,98951.69
2023-04-30T23:30:45.088Z,98949.22
2023-04-30T23:32:50.141Z,98942.50
2023-04-30T23:34:57.883Z,98944.09
2023-04-30T23:37:03.169Z,98940.78
2023-04-30T23:39:08.560Z,98933.25
2023-04-30T23:41:13.557Z,98933.22
2023-04-30T23:43:18.578Z,98932.41
2023-04-30T23:45:24.263Z,98929.94
2023-04-30T23:47:30.730Z,98922.44
2023-04-30T23:49:36.358Z,98920.72
2023-04-30T23:51:43.964Z,98930.66
2023-04-30T23:53:48.985Z,98922.25
2023-04-30T23:55:53.970Z,98924.69
2023-04-30T23:57:59.037Z,98912.19
